Frakes, Kentucky
Current Conditions -  °F | °C
As of 1:15 AM on Monday 26 Jan 2015 (Local Time) from K1A6 Reporting Station
Light Rain Light Rain  
Wind Chill: 40°   Ceiling: 3900
Heat Index: 43°   Visibility: 10mi
Dew Point: 40°   Wind: 5mph
Humidity: 88%   Direction: 160°SSE
Pressure: 29.64"   Gusts: NA
Location:  36.64°N, 83.93°W
Report Text: K1A6 260615Z AUTO 16004KT 10SM -RA SCT027 BKN039 OVC045 06/04 A2964 RMK AO2 P0001 T00610043
Loading
Personal Weather Stations






























Interactive Weather Map New forecast layout! Learn more

10-Day Weather Forecast

Advertisements
Track Severe Weather on mobile